Time;durP1;ratioP1;P1;durP2;ratioP2;P2;SDS_P1;SDS_P2;PMS_P1;PMS_P2;Temp;Humidity;BMP_temperature;BMP_pressure;BME280_temperature;BME280_humidity;BME280_pressure;Samples;Min_cycle;Max_cycle;Signal;HPM_P1;HPM_P2
2023/03/15 08:19:56;;;;;;;2.55;1.20;;;18.60;40.50;;;;;;5092692;28;20412;-73
2023/03/15 08:22:24;;;;;;;1.80;1.00;;;18.70;40.60;;;;;;5071012;28;20236;-72
2023/03/15 08:24:56;;;;;;;3.92;1.60;;;18.70;40.60;;;;;;5057193;28;20197;-73
2023/03/15 08:27:29;;;;;;;5.70;1.25;;;18.70;40.40;;;;;;5103954;28;20706;-73
2023/03/15 08:29:56;;;;;;;6.57;1.40;;;18.60;40.20;;;;;;5091662;28;20205;-72
2023/03/15 08:32:29;;;;;;;3.50;1.10;;;18.70;40.30;;;;;;5091252;28;20304;-73
2023/03/15 08:35:01;;;;;;;3.97;1.80;;;18.70;40.30;;;;;;5100973;28;20292;-73
2023/03/15 08:37:45;;;;;;;3.05;1.30;;;18.70;40.30;;;;;;5111068;28;20706;-72
2023/03/15 08:40:16;;;;;;;9.93;1.70;;;18.70;40.30;;;;;;5111072;28;20189;-72
2023/03/15 08:42:58;;;;;;;4.20;1.40;;;18.70;40.30;;;;;;5111385;27;20302;-73
2023/03/15 08:45:31;;;;;;;4.05;1.50;;;18.80;40.40;;;;;;5110989;28;20185;-72
2023/03/15 08:48:02;;;;;;;6.30;1.70;;;18.80;40.40;;;;;;5104863;28;20335;-73
2023/03/15 08:50:36;;;;;;;4.13;1.10;;;18.80;40.40;;;;;;5090715;28;20244;-72
2023/03/15 08:53:07;;;;;;;3.67;1.80;;;18.80;40.40;;;;;;5104485;28;20278;-72
2023/03/15 08:55:35;;;;;;;4.68;1.65;;;18.80;40.40;;;;;;5114310;28;20186;-72
2023/03/15 08:58:03;;;;;;;4.68;1.70;;;18.80;40.40;;;;;;5114109;28;20224;-72
2023/03/15 09:00:34;;;;;;;4.72;1.50;;;18.80;40.40;;;;;;5094994;28;20203;-72
2023/03/15 09:03:01;;;;;;;2.45;1.50;;;18.90;40.40;;;;;;5114348;27;20694;-72
2023/03/15 09:05:33;;;;;;;4.47;1.73;;;18.90;40.40;;;;;;5114677;28;20197;-72
2023/03/15 09:08:01;;;;;;;5.40;1.60;;;18.90;40.40;;;;;;5114860;28;20778;-72
2023/03/15 09:10:29;;;;;;;4.18;1.60;;;18.80;40.40;;;;;;5114137;28;20268;-72
2023/03/15 09:13:01;;;;;;;5.00;2.05;;;18.90;40.40;;;;;;5114512;28;20213;-72
2023/03/15 09:15:28;;;;;;;3.65;1.60;;;18.90;40.40;;;;;;5095220;28;20241;-72
2023/03/15 09:17:59;;;;;;;2.83;1.50;;;18.90;40.40;;;;;;5114328;28;20220;-72
2023/03/15 09:20:27;;;;;;;2.05;1.70;;;18.90;40.40;;;;;;5113388;28;20282;-72
2023/03/15 09:22:57;;;;;;;3.20;1.73;;;18.90;40.40;;;;;;5129166;27;20243;-71
2023/03/15 09:25:25;;;;;;;3.95;1.65;;;18.90;40.40;;;;;;5134760;27;20192;-71
2023/03/15 09:27:53;;;;;;;8.00;2.10;;;18.90;40.50;;;;;;5135511;27;20264;-72
2023/03/15 09:30:21;;;;;;;4.22;2.00;;;19.00;40.50;;;;;;5103499;27;20202;-72
2023/03/15 09:32:48;;;;;;;3.75;1.67;;;19.00;40.50;;;;;;5094480;28;20201;-72
2023/03/15 09:35:17;;;;;;;6.13;1.92;;;19.00;40.50;;;;;;5093854;28;20590;-72
2023/03/15 09:37:45;;;;;;;5.68;1.40;;;19.00;40.50;;;;;;5094240;28;20209;-72
2023/03/15 09:40:20;;;;;;;5.15;1.90;;;19.00;40.50;;;;;;5094322;28;20241;-72
2023/03/15 09:43:13;;;;;;;7.25;1.73;;;19.00;40.50;;;;;;5106699;28;20223;-73
2023/03/15 09:45:58;;;;;;;10.15;1.70;;;19.10;40.60;;;;;;5113763;28;20664;-73
2023/03/15 09:48:31;;;;;;;5.28;1.42;;;19.10;40.50;;;;;;5106910;28;20707;-72
2023/03/15 09:51:03;;;;;;;5.75;1.50;;;19.10;40.50;;;;;;5094021;28;20217;-73
2023/03/15 09:53:35;;;;;;;7.15;1.73;;;19.10;40.50;;;;;;5093327;28;20875;-73
2023/03/15 09:56:11;;;;;;;2.75;1.98;;;19.10;40.40;;;;;;5093610;28;20540;-73
2023/03/15 09:58:38;;;;;;;4.50;1.80;;;19.10;40.40;;;;;;5093574;28;20213;-72
2023/03/15 10:01:08;;;;;;;355.13;12.00;;;19.10;40.50;;;;;;5111063;27;20217;-73
2023/03/15 10:03:42;;;;;;;85.43;5.13;;;19.20;40.50;;;;;;5094556;28;20213;-72
2023/03/15 10:06:24;;;;;;;380.83;13.73;;;19.20;40.60;;;;;;5104474;28;20279;-72
2023/03/15 10:08:56;;;;;;;101.53;5.25;;;19.20;40.60;;;;;;5092149;28;20218;-73
2023/03/15 10:11:34;;;;;;;109.72;5.72;;;19.20;40.60;;;;;;5093295;28;20209;-73
2023/03/15 10:14:18;;;;;;;68.60;3.92;;;19.20;40.60;;;;;;5093249;28;20221;-73
2023/03/15 10:16:47;;;;;;;67.45;4.38;;;19.30;40.70;;;;;;5093110;28;20182;-72
2023/03/15 10:19:22;;;;;;;40.58;3.10;;;19.30;40.70;;;;;;5101782;28;20270;-74
2023/03/15 10:22:00;;;;;;;27.77;2.58;;;19.30;40.80;;;;;;5107663;27;20769;-74
2023/03/15 10:24:36;;;;;;;21.95;2.47;;;19.30;40.80;;;;;;5120855;27;20221;-73
2023/03/15 10:27:15;;;;;;;35.55;2.50;;;19.40;40.90;;;;;;5111943;28;20197;-73
2023/03/15 10:29:44;;;;;;;21.70;2.22;;;19.30;40.80;;;;;;5113266;28;20212;-73
2023/03/15 10:32:18;;;;;;;19.77;2.10;;;19.40;40.90;;;;;;5112720;27;20196;-73
2023/03/15 10:34:52;;;;;;;13.30;1.70;;;19.40;40.90;;;;;;5112876;28;20217;-73
2023/03/15 10:37:22;;;;;;;11.98;2.08;;;19.40;40.90;;;;;;5112974;28;20192;-73
2023/03/15 10:39:54;;;;;;;8.63;2.42;;;19.40;40.90;;;;;;5113397;28;20216;-72
2023/03/15 10:42:29;;;;;;;8.80;1.77;;;19.40;40.90;;;;;;5113030;28;20239;-73
2023/03/15 10:44:56;;;;;;;9.88;1.85;;;19.40;40.90;;;;;;5113043;28;20216;-73
2023/03/15 10:47:25;;;;;;;10.98;2.10;;;19.40;40.80;;;;;;5112483;28;20189;-73
2023/03/15 10:49:57;;;;;;;7.43;1.63;;;19.40;40.80;;;;;;5112862;28;20270;-73
2023/03/15 10:52:34;;;;;;;5.03;1.75;;;19.40;40.80;;;;;;5111677;28;20186;-73
2023/03/15 10:55:07;;;;;;;8.70;1.40;;;19.40;40.70;;;;;;5112843;28;20706;-73
2023/03/15 10:57:39;;;;;;;11.63;1.60;;;19.40;40.80;;;;;;5112419;28;20276;-73
2023/03/15 11:00:22;;;;;;;6.95;1.80;;;19.40;40.80;;;;;;5112767;27;20213;-73
2023/03/15 11:02:52;;;;;;;7.75;1.50;;;19.40;40.80;;;;;;5112466;28;20211;-73
2023/03/15 11:05:20;;;;;;;10.38;1.65;;;19.50;40.80;;;;;;5112212;28;20278;-73
2023/03/15 11:07:57;;;;;;;7.07;1.83;;;19.50;40.70;;;;;;5112798;28;20186;-73
2023/03/15 11:10:27;;;;;;;6.80;1.45;;;19.50;40.80;;;;;;5112249;28;20242;-73
2023/03/15 11:13:13;;;;;;;8.48;1.52;;;19.50;41.50;;;;;;5112527;28;20193;-73
2023/03/15 11:15:47;;;;;;;4.32;1.60;;;19.50;40.80;;;;;;5112714;28;20189;-73
2023/03/15 11:18:19;;;;;;;13.13;1.60;;;19.50;40.90;;;;;;5108351;28;20201;-72
2023/03/15 11:20:46;;;;;;;8.65;1.60;;;19.50;40.90;;;;;;5103108;28;20304;-73
2023/03/15 11:23:17;;;;;;;5.63;1.48;;;19.50;40.80;;;;;;5127856;27;20255;-73
2023/03/15 11:25:44;;;;;;;5.43;1.13;;;19.50;40.70;;;;;;5133159;27;20249;-73
2023/03/15 11:28:18;;;;;;;4.40;1.50;;;19.50;40.80;;;;;;5132956;27;20185;-73
2023/03/15 11:30:47;;;;;;;14.40;1.65;;;19.50;40.80;;;;;;5132593;27;20593;-73
2023/03/15 11:33:27;;;;;;;6.38;1.45;;;19.60;40.80;;;;;;5111827;27;20196;-72
2023/03/15 11:35:57;;;;;;;6.68;1.33;;;19.50;40.70;;;;;;5112247;28;20189;-72
2023/03/15 11:38:33;;;;;;;4.55;1.50;;;19.60;40.80;;;;;;5111722;28;20639;-72
2023/03/15 11:41:08;;;;;;;3.63;1.60;;;19.60;40.90;;;;;;5110325;28;20261;-72
2023/03/15 11:43:47;;;;;;;3.50;1.42;;;19.60;40.80;;;;;;5106299;28;20231;-72
2023/03/15 11:46:24;;;;;;;5.88;1.38;;;19.60;40.80;;;;;;5107497;28;20200;-72
2023/03/15 11:48:57;;;;;;;9.35;1.67;;;19.50;40.70;;;;;;5110751;28;20217;-72
2023/03/15 11:51:25;;;;;;;5.15;1.42;;;19.60;40.80;;;;;;5105978;28;20448;-72
2023/03/15 11:54:05;;;;;;;6.03;1.75;;;19.60;40.70;;;;;;5105860;28;20285;-72
2023/03/15 11:56:48;;;;;;;11.05;1.55;;;19.60;40.70;;;;;;5102377;28;20734;-72
2023/03/15 11:59:19;;;;;;;4.18;1.60;;;19.60;40.60;;;;;;5104446;28;20600;-71
2023/03/15 12:01:49;;;;;;;2.90;1.17;;;19.60;40.60;;;;;;5106705;28;20220;-72
2023/03/15 12:04:42;;;;;;;5.18;1.50;;;19.60;40.70;;;;;;5106460;28;20217;-72
2023/03/15 12:07:29;;;;;;;2.90;1.17;;;19.60;40.70;;;;;;5107037;28;20754;-72
2023/03/15 12:09:58;;;;;;;3.92;1.30;;;19.60;40.60;;;;;;5109610;28;20212;-72
2023/03/15 12:12:40;;;;;;;2.70;1.30;;;19.60;40.60;;;;;;5107545;28;20201;-72
2023/03/15 12:15:44;;;;;;;2.88;1.40;;;19.60;40.60;;;;;;5105505;28;20701;-72
2023/03/15 12:18:19;;;;;;;6.57;1.20;;;19.60;40.60;;;;;;5109784;28;20192;-72
2023/03/15 12:20:53;;;;;;;2.88;1.23;;;19.70;40.60;;;;;;5110256;28;20228;-72
2023/03/15 12:23:32;;;;;;;3.60;1.30;;;19.70;40.70;;;;;;5092369;28;20236;-72
2023/03/15 12:26:06;;;;;;;2.05;1.17;;;19.70;40.70;;;;;;5091280;28;20665;-73
2023/03/15 12:28:37;;;;;;;4.22;1.30;;;19.70;40.70;;;;;;5092259;28;20186;-72
2023/03/15 12:31:18;;;;;;;3.53;1.30;;;19.60;40.60;;;;;;5094896;28;20193;-73
2023/03/15 12:33:48;;;;;;;2.75;1.05;;;19.60;40.60;;;;;;5042899;28;20228;-72
2023/03/15 12:36:35;;;;;;;4.10;1.30;;;19.60;40.80;;;;;;5094945;28;20251;-72
2023/03/15 12:39:37;;;;;;;6.35;1.10;;;19.70;40.70;;;;;;5094702;28;20244;-73
2023/03/15 12:42:04;;;;;;;3.78;1.30;;;19.60;40.60;;;;;;5095251;28;20213;-72
2023/03/15 12:44:40;;;;;;;3.15;1.20;;;19.70;40.70;;;;;;5095228;28;20209;-73
2023/03/15 12:47:09;;;;;;;4.10;1.38;;;19.70;40.70;;;;;;5097100;28;20618;-73
2023/03/15 12:49:41;;;;;;;7.25;1.17;;;19.70;40.60;;;;;;5094835;28;20824;-72
2023/03/15 12:52:28;;;;;;;5.22;1.10;;;19.70;40.60;;;;;;5094988;28;20216;-72
2023/03/15 12:55:05;;;;;;;3.33;1.30;;;19.70;40.60;;;;;;5101351;28;20949;-73
2023/03/15 12:57:39;;;;;;;5.38;1.13;;;19.80;40.70;;;;;;5094574;28;20181;-72
2023/03/15 13:00:13;;;;;;;9.65;1.35;;;19.70;40.60;;;;;;5106518;28;20224;-73
2023/03/15 13:02:48;;;;;;;4.97;1.40;;;19.70;40.60;;;;;;5101603;27;20567;-72
2023/03/15 13:05:23;;;;;;;3.38;1.50;;;19.80;40.60;;;;;;5097066;28;20280;-72
2023/03/15 13:08:07;;;;;;;4.25;1.30;;;19.80;40.50;;;;;;5107738;27;20323;-70
2023/03/15 13:10:48;;;;;;;4.30;1.80;;;19.80;40.50;;;;;;5096618;28;20225;-70
2023/03/15 13:13:43;;;;;;;3.08;1.40;;;19.80;40.60;;;;;;5096253;28;20607;-69
2023/03/15 13:16:25;;;;;;;9.57;1.38;;;19.80;40.50;;;;;;5092633;27;20190;-69
2023/03/15 13:19:04;;;;;;;4.45;1.30;;;19.80;40.50;;;;;;5100927;28;20212;-70
2023/03/15 13:21:36;;;;;;;4.97;1.70;;;19.80;40.50;;;;;;5101232;27;20262;-71
2023/03/15 13:24:12;;;;;;;4.13;1.45;;;19.80;40.50;;;;;;5094806;27;20260;-72
2023/03/15 13:26:49;;;;;;;3.67;1.50;;;19.80;40.50;;;;;;5097693;28;20205;-70
2023/03/15 13:29:22;;;;;;;3.28;1.30;;;19.80;40.50;;;;;;5101536;27;20222;-69
2023/03/15 13:32:00;;;;;;;6.30;1.60;;;19.90;40.60;;;;;;5099161;28;20281;-70
2023/03/15 13:34:33;;;;;;;11.30;1.75;;;19.80;40.50;;;;;;5102607;28;20221;-71
2023/03/15 13:37:02;;;;;;;4.43;1.38;;;19.80;40.50;;;;;;5092804;27;20201;-70
2023/03/15 13:39:32;;;;;;;6.07;1.52;;;19.80;40.50;;;;;;5099795;28;20243;-72
2023/03/15 13:42:02;;;;;;;6.35;1.60;;;19.80;40.50;;;;;;5093114;28;20251;-70
2023/03/15 13:44:31;;;;;;;7.53;1.58;;;19.80;40.50;;;;;;5089670;28;20320;-70
2023/03/15 13:46:59;;;;;;;8.02;1.88;;;19.90;40.50;;;;;;5101082;27;20189;-69
2023/03/15 13:50:06;;;;;;;7.07;1.30;;;19.80;40.50;;;;;;5100353;28;20220;-70
2023/03/15 13:52:33;;;;;;;3.67;1.63;;;19.80;40.50;;;;;;5085341;27;20717;-69
2023/03/15 13:55:02;;;;;;;12.82;1.92;;;19.80;40.80;;;;;;5109361;27;20205;-69
2023/03/15 13:57:30;;;;;;;5.38;1.70;;;19.80;40.50;;;;;;5095204;28;20353;-69
2023/03/15 13:59:59;;;;;;;7.63;1.48;;;19.80;40.60;;;;;;5097891;28;20209;-69
2023/03/15 14:02:36;;;;;;;5.88;1.75;;;19.80;40.60;;;;;;5093117;28;20271;-67
2023/03/15 14:05:11;;;;;;;3.85;1.42;;;19.80;41.30;;;;;;5101542;27;20221;-68
2023/03/15 14:07:40;;;;;;;4.75;1.55;;;19.80;40.60;;;;;;5100459;28;20197;-69
2023/03/15 14:10:21;;;;;;;4.30;1.40;;;19.80;40.60;;;;;;5093342;28;20716;-68
2023/03/15 14:12:49;;;;;;;5.85;1.85;;;19.80;40.60;;;;;;5091641;28;20200;-70
2023/03/15 14:15:19;;;;;;;4.57;1.65;;;19.80;40.60;;;;;;5090054;27;20233;-69
2023/03/15 14:18:02;;;;;;;5.70;1.70;;;19.80;40.70;;;;;;5092290;27;20315;-71
2023/03/15 14:20:40;;;;;;;9.38;1.75;;;19.80;40.70;;;;;;5095269;27;20309;-70
2023/03/15 14:23:12;;;;;;;4.18;1.65;;;19.80;40.80;;;;;;5094703;27;20229;-70
2023/03/15 14:25:39;;;;;;;7.18;1.83;;;19.80;40.80;;;;;;5088188;28;20217;-71
2023/03/15 14:28:13;;;;;;;6.78;1.60;;;19.80;40.80;;;;;;5100779;27;20210;-70
2023/03/15 14:30:40;;;;;;;5.50;1.65;;;19.70;40.80;;;;;;5099320;27;20592;-71
2023/03/15 14:33:30;;;;;;;5.22;1.48;;;19.70;40.80;;;;;;5094468;28;20534;-70
2023/03/15 14:36:01;;;;;;;3.33;1.50;;;19.80;40.90;;;;;;5096855;28;20643;-71
2023/03/15 14:38:34;;;;;;;4.65;1.58;;;19.70;40.90;;;;;;5087654;28;20371;-73
2023/03/15 14:41:25;;;;;;;6.40;1.90;;;19.80;41.00;;;;;;5096172;28;20834;-71
2023/03/15 14:43:52;;;;;;;4.90;1.88;;;19.70;40.90;;;;;;5092365;28;20223;-70
2023/03/15 14:46:19;;;;;;;7.53;2.17;;;19.70;41.60;;;;;;5094832;27;20221;-73
2023/03/15 14:48:47;;;;;;;7.30;1.80;;;19.70;40.90;;;;;;5094709;28;20209;-73
2023/03/15 14:51:18;;;;;;;5.00;1.98;;;19.80;41.00;;;;;;5056589;28;20218;-73
2023/03/15 14:53:47;;;;;;;4.78;1.90;;;19.80;41.00;;;;;;5088859;28;20538;-73
2023/03/15 14:56:19;;;;;;;4.88;1.65;;;19.70;41.00;;;;;;5095223;28;20230;-74
2023/03/15 14:58:46;;;;;;;6.32;1.80;;;19.70;40.90;;;;;;5093535;27;20698;-72
2023/03/15 15:01:18;;;;;;;7.22;2.00;;;19.70;41.00;;;;;;5098829;27;20213;-73
2023/03/15 15:03:57;;;;;;;9.48;2.28;;;19.70;41.10;;;;;;5105546;27;20270;-72
2023/03/15 15:06:31;;;;;;;9.10;1.77;;;19.70;41.10;;;;;;5097170;28;20981;-74
2023/03/15 15:09:05;;;;;;;8.45;1.95;;;19.70;41.00;;;;;;5093141;28;20665;-74
2023/03/15 15:11:35;;;;;;;5.55;1.60;;;19.70;41.10;;;;;;5093669;28;20548;-72
2023/03/15 15:14:04;;;;;;;6.43;1.90;;;19.70;41.00;;;;;;5096296;28;20280;-72
2023/03/15 15:16:32;;;;;;;10.15;1.98;;;19.70;41.10;;;;;;5095369;27;20225;-72
2023/03/15 15:18:59;;;;;;;6.75;1.60;;;19.70;41.10;;;;;;5097512;28;20197;-70
2023/03/15 15:21:29;;;;;;;4.90;1.60;;;19.70;41.00;;;;;;5092952;28;20618;-72
2023/03/15 15:23:57;;;;;;;5.93;1.85;;;19.70;41.00;;;;;;5096679;28;20567;-72
2023/03/15 15:26:29;;;;;;;7.45;1.95;;;19.70;41.10;;;;;;5097781;27;20247;-75
2023/03/15 15:29:01;;;;;;;6.13;1.60;;;19.70;41.10;;;;;;5091696;28;20194;-72
2023/03/15 15:31:32;;;;;;;4.85;1.75;;;19.70;41.10;;;;;;5094948;28;20560;-71
2023/03/15 15:34:00;;;;;;;11.35;1.88;;;19.80;41.20;;;;;;5092879;28;20198;-71
2023/03/15 15:36:32;;;;;;;9.65;1.98;;;19.70;41.10;;;;;;5085043;28;20723;-71
2023/03/15 15:39:03;;;;;;;10.02;1.60;;;19.70;41.20;;;;;;5088942;28;20601;-70
2023/03/15 15:41:32;;;;;;;13.35;1.88;;;19.70;41.10;;;;;;5087302;28;20225;-71
2023/03/15 15:43:59;;;;;;;5.32;1.50;;;19.80;41.20;;;;;;5093309;28;20299;-71
2023/03/15 15:46:27;;;;;;;8.65;1.83;;;19.80;41.20;;;;;;5090668;28;21151;-71
2023/03/15 15:48:54;;;;;;;8.15;1.70;;;19.80;41.20;;;;;;5096408;28;20197;-71
2023/03/15 15:51:27;;;;;;;5.75;1.52;;;19.80;41.20;;;;;;5089252;28;20228;-71
2023/03/15 15:53:57;;;;;;;6.57;1.95;;;19.80;41.20;;;;;;5091676;28;20205;-71
2023/03/15 15:56:31;;;;;;;4.70;1.85;;;19.80;41.20;;;;;;5092497;28;20231;-71
2023/03/15 15:58:59;;;;;;;4.25;1.42;;;19.80;41.20;;;;;;5092234;28;20690;-71
2023/03/15 16:01:27;;;;;;;4.72;1.35;;;19.90;41.30;;;;;;5092814;28;20461;-71
2023/03/15 16:03:54;;;;;;;8.10;1.60;;;19.90;41.40;;;;;;5099525;28;20542;-71
2023/03/15 16:06:22;;;;;;;4.70;1.83;;;19.90;41.60;;;;;;5054983;28;20217;-71
2023/03/15 16:08:52;;;;;;;7.05;1.35;;;19.80;41.60;;;;;;5093591;28;20655;-71
2023/03/15 16:11:21;;;;;;;15.38;1.95;;;19.80;41.80;;;;;;5053491;28;20596;-71
2023/03/15 16:13:52;;;;;;;5.22;1.55;;;19.90;41.80;;;;;;5089676;28;20186;-71
2023/03/15 16:16:20;;;;;;;4.88;1.30;;;19.90;41.80;;;;;;5089979;28;20301;-71
2023/03/15 16:18:48;;;;;;;3.40;1.25;;;19.90;42.60;;;;;;5089599;28;20206;-71
2023/03/15 16:21:20;;;;;;;7.60;2.10;;;19.90;42.10;;;;;;5093612;28;20234;-71
2023/03/15 16:23:55;;;;;;;9.45;1.88;;;19.90;42.10;;;;;;5090158;28;20213;-71
2023/03/15 16:26:27;;;;;;;8.85;1.75;;;19.90;42.30;;;;;;5093029;28;20217;-71
2023/03/15 16:28:54;;;;;;;7.93;1.92;;;19.90;42.20;;;;;;5092680;28;20251;-71
2023/03/15 16:31:21;;;;;;;9.73;1.77;;;19.90;42.30;;;;;;5092391;28;20229;-71
2023/03/15 16:33:49;;;;;;;6.07;1.30;;;19.90;42.20;;;;;;5091542;28;20288;-71
2023/03/15 16:36:17;;;;;;;8.05;1.40;;;19.90;42.20;;;;;;5088644;28;20229;-71
2023/03/15 16:38:44;;;;;;;4.38;1.45;;;19.90;42.40;;;;;;5096727;28;20493;-71
2023/03/15 16:41:14;;;;;;;6.07;1.67;;;19.90;42.30;;;;;;5097145;28;20213;-71
2023/03/15 16:43:44;;;;;;;2.53;1.42;;;19.90;42.50;;;;;;5091123;27;20608;-71
2023/03/15 16:46:15;;;;;;;8.75;1.80;;;19.90;42.40;;;;;;5098539;28;20214;-71
2023/03/15 16:48:43;;;;;;;2.67;1.50;;;19.90;42.50;;;;;;5095162;28;20197;-71
2023/03/15 16:51:14;;;;;;;5.75;1.75;;;20.00;42.60;;;;;;5094198;28;20876;-70
2023/03/15 16:53:44;;;;;;;3.50;1.42;;;19.90;43.20;;;;;;5097491;28;20188;-71
2023/03/15 16:56:13;;;;;;;4.43;1.42;;;19.90;42.60;;;;;;5087956;28;20214;-71
2023/03/15 16:58:41;;;;;;;7.03;1.52;;;19.90;42.70;;;;;;5094323;28;20217;-71
2023/03/15 17:01:11;;;;;;;3.72;1.63;;;19.90;42.70;;;;;;5093726;28;20477;-71
2023/03/15 17:03:38;;;;;;;9.27;1.80;;;20.00;42.80;;;;;;5106202;28;20269;-75
2023/03/15 17:06:06;;;;;;;3.60;1.23;;;19.90;42.80;;;;;;5130629;27;20441;-73
2023/03/15 17:08:34;;;;;;;7.50;1.50;;;19.90;42.90;;;;;;5131399;27;20185;-72
2023/03/15 17:11:01;;;;;;;6.80;1.92;;;19.90;42.90;;;;;;5130501;27;20216;-73
2023/03/15 17:13:32;;;;;;;6.68;1.58;;;19.90;42.90;;;;;;5129851;28;20193;-73
2023/03/15 17:15:59;;;;;;;6.25;1.60;;;19.90;42.90;;;;;;5135159;27;20223;-73
2023/03/15 17:18:28;;;;;;;4.55;1.60;;;19.80;42.80;;;;;;5135516;27;20192;-73
2023/03/15 17:20:56;;;;;;;4.32;1.70;;;19.90;42.90;;;;;;5120272;27;20227;-73
2023/03/15 17:23:23;;;;;;;3.53;1.40;;;19.80;42.80;;;;;;5114884;28;20220;-74
2023/03/15 17:25:50;;;;;;;5.50;1.55;;;19.80;42.80;;;;;;5115028;28;20266;-73
2023/03/15 17:28:17;;;;;;;2.00;1.25;;;19.80;42.70;;;;;;5114105;28;20243;-74
2023/03/15 17:30:44;;;;;;;4.25;1.88;;;19.90;42.80;;;;;;5114857;27;20451;-72
2023/03/15 17:33:11;;;;;;;4.57;1.45;;;19.80;42.70;;;;;;5114355;28;20627;-73
2023/03/15 17:35:43;;;;;;;3.08;1.55;;;19.80;42.70;;;;;;5115119;28;20750;-73
2023/03/15 17:38:17;;;;;;;3.50;1.55;;;19.80;42.70;;;;;;5114449;28;20223;-73
2023/03/15 17:40:45;;;;;;;4.90;1.60;;;19.80;42.60;;;;;;5115027;28;20643;-73
2023/03/15 17:43:14;;;;;;;7.07;1.48;;;19.80;42.60;;;;;;5114917;28;20192;-73
2023/03/15 17:45:42;;;;;;;7.55;2.15;;;19.80;42.60;;;;;;5115223;28;20213;-73
2023/03/15 17:48:09;;;;;;;7.03;1.92;;;19.80;42.60;;;;;;5115206;28;20219;-72
2023/03/15 17:50:37;;;;;;;4.55;1.42;;;19.80;42.50;;;;;;5114562;28;20686;-73
2023/03/15 17:53:11;;;;;;;3.38;1.70;;;19.80;42.40;;;;;;5114901;27;20266;-73
2023/03/15 17:55:38;;;;;;;4.43;1.60;;;19.70;42.40;;;;;;5114853;28;20691;-73
2023/03/15 17:58:11;;;;;;;5.75;1.92;;;19.70;42.30;;;;;;5114913;28;20181;-72
2023/03/15 18:00:40;;;;;;;2.70;1.55;;;19.70;42.30;;;;;;5114340;28;20209;-71
2023/03/15 18:03:10;;;;;;;2.53;1.42;;;19.70;42.40;;;;;;5114971;28;20552;-72
2023/03/15 18:05:37;;;;;;;3.90;1.70;;;19.70;42.30;;;;;;5114568;28;20213;-73
2023/03/15 18:08:06;;;;;;;3.72;1.63;;;19.70;42.30;;;;;;5114692;28;20182;-72
2023/03/15 18:10:40;;;;;;;4.18;1.63;;;19.70;42.20;;;;;;5114543;28;20196;-72
2023/03/15 18:13:07;;;;;;;7.55;2.00;;;19.70;42.20;;;;;;5114824;28;20189;-72
2023/03/15 18:15:34;;;;;;;3.70;1.60;;;19.70;42.20;;;;;;5114455;28;20193;-72
2023/03/15 18:18:01;;;;;;;6.70;1.83;;;19.70;42.20;;;;;;5114982;28;20189;-73
2023/03/15 18:20:28;;;;;;;5.15;2.03;;;19.70;42.20;;;;;;5114748;28;20229;-72
2023/03/15 18:22:55;;;;;;;10.63;2.20;;;19.70;42.10;;;;;;5114482;28;20609;-73
2023/03/15 18:25:30;;;;;;;4.47;1.90;;;19.70;42.10;;;;;;5114725;28;20266;-72
2023/03/15 18:27:57;;;;;;;5.55;1.75;;;19.70;42.10;;;;;;5114205;28;20272;-72
2023/03/15 18:30:29;;;;;;;8.13;2.10;;;19.70;42.10;;;;;;5113210;28;20233;-73
2023/03/15 18:32:56;;;;;;;5.38;2.20;;;19.70;42.10;;;;;;5114640;28;20181;-72
2023/03/15 18:35:26;;;;;;;3.80;1.77;;;19.60;42.00;;;;;;5114542;28;20185;-73
2023/03/15 18:37:56;;;;;;;4.65;1.90;;;19.70;42.10;;;;;;5114797;28;20185;-73
2023/03/15 18:40:31;;;;;;;3.55;1.60;;;19.60;42.00;;;;;;5114564;28;20186;-73
2023/03/15 18:43:02;;;;;;;4.45;1.63;;;19.60;42.00;;;;;;5114223;28;20192;-73
2023/03/15 18:45:31;;;;;;;6.80;1.85;;;19.70;42.00;;;;;;5078998;28;20221;-72
2023/03/15 18:48:03;;;;;;;4.78;2.03;;;19.70;42.00;;;;;;5114091;28;20189;-73
2023/03/15 18:50:33;;;;;;;6.32;1.90;;;19.70;42.00;;;;;;5113083;28;20216;-73
2023/03/15 18:53:03;;;;;;;3.90;1.90;;;19.70;42.00;;;;;;5113999;28;20280;-73
2023/03/15 18:55:36;;;;;;;4.35;1.92;;;19.70;42.00;;;;;;5113805;28;20197;-73
2023/03/15 18:58:16;;;;;;;5.45;2.08;;;19.60;41.90;;;;;;5112998;28;20182;-73
2023/03/15 19:00:43;;;;;;;5.25;1.80;;;19.60;41.90;;;;;;5113911;28;20570;-73
2023/03/15 19:03:14;;;;;;;3.22;1.92;;;19.60;41.90;;;;;;5113745;28;20230;-73
2023/03/15 19:05:41;;;;;;;3.58;1.90;;;19.60;41.80;;;;;;5113577;28;20228;-73
2023/03/15 19:08:08;;;;;;;4.28;1.70;;;19.70;41.90;;;;;;5094883;28;20205;-73
2023/03/15 19:10:38;;;;;;;3.92;2.10;;;19.60;41.80;;;;;;5113776;28;20185;-73
2023/03/15 19:13:08;;;;;;;4.30;2.10;;;19.60;41.80;;;;;;5113904;28;20200;-73
2023/03/15 19:15:35;;;;;;;3.90;2.00;;;19.60;41.80;;;;;;5113460;28;20655;-73
2023/03/15 19:18:05;;;;;;;4.43;1.90;;;19.60;41.70;;;;;;5113994;27;20197;-73
2023/03/15 19:20:47;;;;;;;6.45;2.00;;;19.60;42.40;;;;;;5112980;28;20224;-73
2023/03/15 19:25:59;;;;;;;6.80;2.70;;;19.60;41.70;;;;;;5111941;28;20228;-73
2023/03/15 19:28:34;;;;;;;4.72;2.28;;;19.60;41.70;;;;;;5113640;28;20246;-73
2023/03/15 19:31:06;;;;;;;4.05;1.92;;;19.60;41.70;;;;;;5113437;28;20208;-73
2023/03/15 19:33:47;;;;;;;4.43;2.20;;;19.50;41.60;;;;;;5094357;28;20201;-74
2023/03/15 19:36:14;;;;;;;3.53;1.73;;;19.50;41.60;;;;;;5070166;28;20223;-73
2023/03/15 19:38:45;;;;;;;2.53;1.75;;;19.50;41.60;;;;;;5052723;28;20198;-73
2023/03/15 19:41:16;;;;;;;4.90;2.10;;;19.50;42.20;;;;;;5069986;28;20214;-73
2023/03/15 19:43:45;;;;;;;6.28;2.15;;;19.50;41.60;;;;;;5070156;28;20229;-73
2023/03/15 19:46:25;;;;;;;5.03;2.17;;;19.50;41.60;;;;;;5070083;28;20223;-73
2023/03/15 19:48:54;;;;;;;4.97;2.00;;;19.50;41.60;;;;;;5070056;28;20305;-73
2023/03/15 19:51:26;;;;;;;5.78;2.03;;;19.40;41.50;;;;;;5005077;28;20272;-73
2023/03/15 19:53:55;;;;;;;6.55;2.03;;;19.40;41.50;;;;;;5082070;28;20199;-73
2023/03/15 19:56:28;;;;;;;4.32;2.05;;;19.40;41.50;;;;;;5093940;28;20213;-73
2023/03/15 19:59:00;;;;;;;4.22;1.75;;;19.40;41.50;;;;;;5113183;28;20619;-73
2023/03/15 20:01:27;;;;;;;5.60;2.30;;;19.40;41.50;;;;;;5112672;28;20259;-74
2023/03/15 20:04:02;;;;;;;5.45;2.05;;;19.30;41.40;;;;;;5112967;28;20235;-72
2023/03/15 20:06:33;;;;;;;3.75;1.70;;;19.30;41.40;;;;;;5111624;28;20216;-73
2023/03/15 20:09:02;;;;;;;3.70;2.00;;;19.30;41.40;;;;;;5113045;28;20589;-73
2023/03/15 20:11:45;;;;;;;3.30;1.88;;;19.30;41.40;;;;;;5112621;28;20216;-73
2023/03/15 20:14:14;;;;;;;4.88;2.30;;;19.30;41.40;;;;;;5112346;28;20181;-73
2023/03/15 20:16:44;;;;;;;3.67;1.80;;;19.30;41.40;;;;;;5112941;28;20220;-73
2023/03/15 20:19:15;;;;;;;5.05;1.95;;;19.20;41.40;;;;;;5112874;28;20607;-73
2023/03/15 20:21:56;;;;;;;4.55;1.98;;;19.20;41.40;;;;;;5112544;28;20237;-72
2023/03/15 20:24:50;;;;;;;6.45;2.22;;;19.20;41.50;;;;;;5112475;28;20223;-73
2023/03/15 20:27:35;;;;;;;4.30;1.85;;;19.20;41.50;;;;;;5111613;28;20666;-73
2023/03/15 20:30:09;;;;;;;6.03;1.98;;;19.20;41.50;;;;;;5112900;28;20276;-73
2023/03/15 20:32:36;;;;;;;2.45;1.60;;;19.20;41.60;;;;;;5112645;28;20295;-73
2023/03/15 20:35:07;;;;;;;4.13;1.80;;;19.10;41.50;;;;;;5112702;28;20194;-72
2023/03/15 20:37:41;;;;;;;6.15;1.90;;;19.10;41.50;;;;;;5112357;28;20739;-73
2023/03/15 20:40:14;;;;;;;3.83;2.00;;;19.10;41.60;;;;;;5112330;28;20563;-73
2023/03/15 20:42:44;;;;;;;4.43;1.70;;;19.10;41.60;;;;;;5112837;28;20576;-73
2023/03/15 20:45:27;;;;;;;5.28;1.90;;;19.10;41.60;;;;;;5112502;28;20213;-73
2023/03/15 20:47:56;;;;;;;4.63;1.60;;;19.10;41.60;;;;;;5112614;28;20186;-72
2023/03/15 20:50:27;;;;;;;4.10;1.70;;;19.10;41.70;;;;;;5114721;28;20189;-72
2023/03/15 20:53:02;;;;;;;5.15;2.00;;;19.10;41.70;;;;;;5116553;28;20569;-73
2023/03/15 20:55:29;;;;;;;5.63;2.15;;;19.10;41.70;;;;;;5116259;27;20207;-73
2023/03/15 20:58:11;;;;;;;4.53;1.80;;;19.00;41.70;;;;;;5116502;28;20185;-73
2023/03/15 21:00:41;;;;;;;6.30;1.80;;;19.00;41.80;;;;;;5115561;28;20246;-73
2023/03/15 21:03:14;;;;;;;3.38;1.38;;;19.00;41.80;;;;;;5116412;28;20193;-72
2023/03/15 21:05:43;;;;;;;2.42;1.30;;;19.00;41.90;;;;;;5115940;28;20223;-73
2023/03/15 21:08:11;;;;;;;3.97;1.75;;;19.00;41.90;;;;;;5116336;28;20243;-73
2023/03/15 21:10:38;;;;;;;3.60;1.88;;;19.00;41.90;;;;;;5115806;28;20235;-72
2023/03/15 21:13:10;;;;;;;3.40;1.65;;;18.90;41.90;;;;;;5116189;28;20307;-72
2023/03/15 21:16:03;;;;;;;2.78;1.50;;;18.90;42.00;;;;;;5116099;28;20242;-72
2023/03/15 21:18:34;;;;;;;2.88;1.40;;;18.90;42.00;;;;;;5114812;28;20728;-72
2023/03/15 21:21:03;;;;;;;2.65;1.48;;;18.90;42.00;;;;;;5115609;28;20740;-73
2023/03/15 21:23:31;;;;;;;3.65;1.52;;;18.90;42.00;;;;;;5115998;28;20666;-73
2023/03/15 21:26:02;;;;;;;3.40;1.50;;;18.90;42.00;;;;;;5115718;28;20233;-72
2023/03/15 21:28:33;;;;;;;3.10;1.30;;;18.90;42.10;;;;;;5115994;28;20189;-72
2023/03/15 21:31:00;;;;;;;3.08;1.50;;;18.90;42.80;;;;;;5115416;28;20213;-72
2023/03/15 21:33:31;;;;;;;4.45;1.88;;;18.90;42.20;;;;;;5115831;28;20257;-73